Time;durP1;ratioP1;P1;durP2;ratioP2;P2;SDS_P1;SDS_P2;PMS_P1;PMS_P2;Temp;Humidity;BMP_temperature;BMP_pressure;BME280_temperature;BME280_humidity;BME280_pressure;Samples;Min_cycle;Max_cycle;Signal;HPM_P1;HPM_P2
2024/01/07 00:01:03;;;;;;;8.43;6.63;;;-16.30;91.60;;;;;;5043926;28;20031;-85
2024/01/07 00:03:29;;;;;;;9.57;5.83;;;-16.30;91.70;;;;;;5047016;28;20052;-85
2024/01/07 00:05:55;;;;;;;17.87;5.93;;;-16.20;91.70;;;;;;5054777;28;20033;-84
2024/01/07 00:08:21;;;;;;;10.10;7.00;;;-16.20;91.80;;;;;;5023767;28;20041;-85
2024/01/07 00:10:46;;;;;;;15.43;7.53;;;-16.20;91.90;;;;;;5030731;28;20022;-85
2024/01/07 00:13:12;;;;;;;14.70;4.97;;;-16.20;91.80;;;;;;5012030;28;20404;-85
2024/01/07 00:15:38;;;;;;;12.57;6.40;;;-16.20;91.70;;;;;;5032303;28;20466;-84
2024/01/07 00:18:05;;;;;;;16.85;7.28;;;-16.30;91.60;;;;;;5034367;28;20546;-84
2024/01/07 00:20:31;;;;;;;12.80;6.80;;;-16.30;91.70;;;;;;5035484;28;20072;-86
2024/01/07 00:22:56;;;;;;;12.67;6.60;;;-16.30;91.60;;;;;;5033919;28;20025;-85
2024/01/07 00:25:22;;;;;;;7.63;4.73;;;-16.40;91.80;;;;;;5025206;28;20037;-82
2024/01/07 00:27:50;;;;;;;11.43;6.10;;;-16.40;91.80;;;;;;5034276;28;20052;-83
2024/01/07 00:30:16;;;;;;;13.20;7.47;;;-16.50;91.70;;;;;;5034870;28;20021;-84
2024/01/07 00:32:42;;;;;;;13.80;6.80;;;-16.50;91.80;;;;;;5007261;28;20121;-84
2024/01/07 00:35:08;;;;;;;15.27;7.07;;;-16.60;91.80;;;;;;5023015;28;20021;-85
2024/01/07 00:37:34;;;;;;;11.40;6.23;;;-16.60;91.80;;;;;;5024495;28;20026;-83
2024/01/07 00:40:00;;;;;;;;;;;-16.60;91.90;;;;;;5034375;28;20271;-85
2024/01/07 00:42:26;;;;;;;6.80;6.03;;;-16.60;91.60;;;;;;5040134;28;20310;-83
2024/01/07 00:44:52;;;;;;;10.80;6.77;;;-16.70;91.90;;;;;;5023057;28;20022;-86
2024/01/07 00:47:18;;;;;;;8.50;5.00;;;-16.70;91.60;;;;;;5034600;28;20029;-83
2024/01/07 00:49:44;;;;;;;8.47;6.23;;;-16.80;91.50;;;;;;5033242;28;20036;-82
2024/01/07 00:52:10;;;;;;;16.83;7.27;;;-16.80;91.50;;;;;;5012097;28;20043;-82
2024/01/07 00:54:36;;;;;;;12.50;6.63;;;-16.90;91.30;;;;;;5025557;28;20087;-84
2024/01/07 00:57:02;;;;;;;14.10;4.97;;;-16.90;91.20;;;;;;5033832;28;20478;-84
2024/01/07 00:59:32;;;;;;;11.68;5.93;;;-17.00;91.30;;;;;;5034682;28;20695;-84
2024/01/07 01:01:58;;;;;;;14.23;5.68;;;-17.00;91.40;;;;;;5015179;28;20026;-83
2024/01/07 01:04:23;;;;;;;8.02;5.13;;;-17.00;91.40;;;;;;5036688;28;20067;-82
2024/01/07 01:06:49;;;;;;;9.57;6.87;;;-17.00;91.40;;;;;;5014091;28;20121;-82
2024/01/07 01:09:15;;;;;;;8.73;5.20;;;-17.00;91.30;;;;;;5022380;28;20060;-84
2024/01/07 01:11:41;;;;;;;10.47;5.63;;;-17.10;91.20;;;;;;5031193;28;20459;-84
2024/01/07 01:14:06;;;;;;;14.00;5.37;;;-17.10;91.20;;;;;;5033265;28;20017;-83
2024/01/07 01:16:32;;;;;;;11.93;6.17;;;-17.10;91.30;;;;;;5018661;28;20021;-84
2024/01/07 01:18:58;;;;;;;9.87;5.80;;;-17.10;91.60;;;;;;5043420;28;20491;-83
2024/01/07 01:21:24;;;;;;;10.70;5.57;;;-17.10;91.40;;;;;;5044900;28;20037;-83
2024/01/07 01:23:50;;;;;;;21.53;7.83;;;-17.10;91.70;;;;;;5038461;28;20069;-83
2024/01/07 01:26:16;;;;;;;12.67;7.40;;;-17.00;91.40;;;;;;5025409;28;20021;-85
2024/01/07 01:28:41;;;;;;;13.73;6.30;;;-17.00;91.40;;;;;;5037971;28;20060;-84
2024/01/07 01:31:07;;;;;;;6.57;4.60;;;-17.00;91.30;;;;;;5054911;28;20033;-84
2024/01/07 01:33:33;;;;;;;9.90;5.30;;;-17.00;91.20;;;;;;5016292;28;20069;-84
2024/01/07 01:36:03;;;;;;;7.17;4.43;;;-17.00;91.10;;;;;;5031792;28;20474;-86
2024/01/07 01:38:29;;;;;;;14.15;5.55;;;-17.00;91.00;;;;;;5036464;28;20519;-85
2024/01/07 01:40:55;;;;;;;9.77;5.43;;;-17.10;90.80;;;;;;5025879;28;20025;-82
2024/01/07 01:43:28;;;;;;;7.27;4.00;;;-17.20;90.70;;;;;;5028531;28;20045;-86
2024/01/07 01:45:55;;;;;;;7.90;4.30;;;-17.20;90.90;;;;;;5031400;28;20044;-86
2024/01/07 01:48:26;;;;;;;14.27;6.88;;;-17.20;91.10;;;;;;5030564;28;20026;-85
2024/01/07 01:50:57;;;;;;;15.32;6.00;;;-17.20;91.20;;;;;;5033287;28;20021;-85
2024/01/07 01:53:27;;;;;;;11.02;6.63;;;-17.30;91.00;;;;;;5015079;28;20117;-83
2024/01/07 01:55:55;;;;;;;10.05;6.22;;;-17.40;90.90;;;;;;5034790;28;20030;-83
2024/01/07 01:58:21;;;;;;;10.70;4.85;;;-17.40;90.90;;;;;;5031424;28;20025;-83
2024/01/07 02:00:47;;;;;;;12.40;5.82;;;-17.40;90.90;;;;;;5034950;28;20021;-82
2024/01/07 02:03:13;;;;;;;7.57;4.33;;;-17.50;91.00;;;;;;5034453;28;20599;-84
2024/01/07 02:05:39;;;;;;;12.87;5.90;;;-17.40;91.00;;;;;;5046966;28;20018;-84
2024/01/07 02:08:05;;;;;;;16.57;7.70;;;-17.40;91.10;;;;;;5052999;28;20037;-83
2024/01/07 02:10:34;;;;;;;7.97;4.55;;;-17.40;91.00;;;;;;5033434;28;20021;-83
2024/01/07 02:13:00;;;;;;;6.70;4.70;;;-17.40;91.00;;;;;;5032661;28;20113;-86
2024/01/07 02:15:26;;;;;;;12.30;5.07;;;-17.40;90.70;;;;;;5033712;28;20052;-84
2024/01/07 02:17:52;;;;;;;8.02;4.43;;;-17.50;90.70;;;;;;5016056;28;20040;-83
2024/01/07 02:20:18;;;;;;;13.67;6.30;;;-17.50;90.80;;;;;;5032445;28;20382;-86
2024/01/07 02:22:44;;;;;;;12.63;6.57;;;-17.50;90.90;;;;;;5032469;28;20021;-85
2024/01/07 02:25:10;;;;;;;13.43;7.87;;;-17.50;90.80;;;;;;5032635;28;20021;-84
2024/01/07 02:27:35;;;;;;;7.40;4.83;;;-17.50;90.70;;;;;;5035482;28;20536;-84
2024/01/07 02:30:01;;;;;;;14.30;5.40;;;-17.60;90.50;;;;;;5038983;28;20036;-85
2024/01/07 02:32:27;;;;;;;11.38;6.25;;;-17.60;90.50;;;;;;5025670;28;20021;-83
2024/01/07 02:34:53;;;;;;;11.88;7.22;;;-17.60;90.60;;;;;;5040648;28;20030;-84
2024/01/07 02:37:20;;;;;;;7.67;4.67;;;-17.70;90.50;;;;;;5036101;28;20480;-85
2024/01/07 02:39:46;;;;;;;;;;;-17.70;90.50;;;;;;5036520;28;20356;-84
2024/01/07 02:42:11;;;;;;;8.77;4.57;;;-17.80;90.60;;;;;;5033478;28;19910;-85
2024/01/07 02:44:37;;;;;;;13.43;6.63;;;-17.90;90.30;;;;;;5035401;28;20028;-84
2024/01/07 02:47:03;;;;;;;7.57;4.70;;;-17.90;90.40;;;;;;5044886;28;20017;-82
2024/01/07 02:49:29;;;;;;;9.65;4.57;;;-17.90;90.50;;;;;;5032812;28;20097;-82
2024/01/07 02:51:55;;;;;;;11.73;6.23;;;-18.00;90.50;;;;;;5025129;28;20028;-83
2024/01/07 02:54:21;;;;;;;7.90;3.87;;;-18.00;90.40;;;;;;5033946;28;20017;-85
2024/01/07 02:56:47;;;;;;;9.63;5.40;;;-18.10;90.40;;;;;;5035871;28;20025;-85
2024/01/07 02:59:13;;;;;;;16.37;6.00;;;-18.10;90.80;;;;;;5026059;28;20030;-85
2024/01/07 03:01:42;;;;;;;14.98;6.85;;;-18.20;90.20;;;;;;5032651;28;20278;-84
2024/01/07 03:04:12;;;;;;;9.02;4.57;;;-18.20;89.90;;;;;;5026694;28;20057;-83
2024/01/07 03:06:38;;;;;;;4.95;2.85;;;-18.30;90.00;;;;;;5033328;28;20063;-82
2024/01/07 03:09:04;;;;;;;12.40;5.93;;;-18.30;90.10;;;;;;5043398;28;20132;-83
2024/01/07 03:11:30;;;;;;;7.07;6.43;;;-18.30;90.00;;;;;;5024535;28;20278;-83
2024/01/07 03:13:56;;;;;;;12.67;4.17;;;-18.40;89.80;;;;;;5024967;28;20022;-82
2024/01/07 03:16:23;;;;;;;7.15;4.30;;;-18.50;89.90;;;;;;5026368;28;20279;-80
2024/01/07 03:18:51;;;;;;;10.45;5.75;;;-18.50;89.80;;;;;;5043093;28;20129;-83
2024/01/07 03:21:22;;;;;;;12.57;6.05;;;-18.60;89.40;;;;;;5019343;28;20061;-84
2024/01/07 03:23:49;;;;;;;12.48;6.15;;;-18.60;89.50;;;;;;5042322;28;20022;-83
2024/01/07 03:26:16;;;;;;;12.05;5.88;;;-18.70;89.90;;;;;;5033135;28;20041;-83
2024/01/07 03:28:42;;;;;;;8.35;4.55;;;-18.70;90.10;;;;;;5031153;28;20038;-83
2024/01/07 03:31:26;;;;;;;9.75;4.43;;;-18.70;90.20;;;;;;5031305;28;20030;-82
2024/01/07 03:33:52;;;;;;;7.28;4.13;;;-18.70;90.30;;;;;;5034652;28;20038;-83
2024/01/07 03:36:18;;;;;;;11.77;4.73;;;-18.60;90.40;;;;;;5036187;28;20132;-83
2024/01/07 03:38:43;;;;;;;9.57;4.90;;;-18.60;90.40;;;;;;5034352;28;20075;-83
2024/01/07 03:41:15;;;;;;;10.50;5.93;;;-18.70;90.40;;;;;;5035621;28;20014;-83
2024/01/07 03:43:40;;;;;;;8.70;4.78;;;-18.80;90.10;;;;;;5021795;28;20030;-84
2024/01/07 03:46:06;;;;;;;13.73;5.17;;;-18.80;90.00;;;;;;5033708;28;20390;-82
2024/01/07 03:48:32;;;;;;;22.60;6.73;;;-18.80;90.20;;;;;;5035390;28;20340;-83
2024/01/07 03:50:58;;;;;;;12.30;5.88;;;-18.80;90.20;;;;;;5010214;28;20030;-83
2024/01/07 03:53:24;;;;;;;12.73;3.93;;;-18.80;90.30;;;;;;5017393;28;20847;-84
2024/01/07 03:55:50;;;;;;;8.47;4.47;;;-18.80;90.20;;;;;;5037175;28;20084;-83
2024/01/07 03:58:16;;;;;;;7.93;4.30;;;-18.90;90.30;;;;;;5018265;28;20320;-82
2024/01/07 04:00:41;;;;;;;11.80;4.63;;;-18.90;90.30;;;;;;5034869;28;20278;-84
2024/01/07 04:03:07;;;;;;;6.73;2.60;;;-18.90;90.30;;;;;;5034732;28;20348;-83
2024/01/07 04:05:33;;;;;;;11.13;5.80;;;-18.90;90.40;;;;;;5016499;28;20026;-83
2024/01/07 04:08:01;;;;;;;6.00;3.03;;;-18.90;90.30;;;;;;5016802;28;20349;-83
2024/01/07 04:10:27;;;;;;;14.48;5.82;;;-18.90;90.20;;;;;;5009225;28;20299;-83
2024/01/07 04:12:53;;;;;;;10.52;5.88;;;-18.90;90.30;;;;;;5038372;28;20507;-84
2024/01/07 04:15:19;;;;;;;11.47;5.83;;;-18.90;90.30;;;;;;5040902;28;20127;-84
2024/01/07 04:17:44;;;;;;;7.13;4.60;;;-19.00;90.40;;;;;;5048712;28;20036;-83
2024/01/07 04:20:13;;;;;;;7.95;3.60;;;-19.00;90.30;;;;;;5034818;28;20026;-85
2024/01/07 04:22:39;;;;;;;12.43;6.35;;;-19.00;90.20;;;;;;5034762;28;20029;-83
2024/01/07 04:25:08;;;;;;;20.15;7.25;;;-19.00;90.10;;;;;;5016887;28;20025;-84
2024/01/07 04:27:37;;;;;;;11.52;5.13;;;-19.00;90.00;;;;;;5034243;28;20022;-84
2024/01/07 04:30:05;;;;;;;10.73;5.03;;;-19.10;89.90;;;;;;5034334;28;20080;-84
2024/01/07 04:32:31;;;;;;;8.32;3.65;;;-19.10;90.00;;;;;;5034372;28;20391;-83
2024/01/07 04:34:57;;;;;;;9.95;4.60;;;-19.10;90.10;;;;;;5016657;28;20033;-85
2024/01/07 04:37:26;;;;;;;9.55;5.95;;;-19.10;90.20;;;;;;5035180;28;20030;-82
2024/01/07 04:39:52;;;;;;;13.18;7.57;;;-19.10;90.30;;;;;;5016591;28;20091;-82
2024/01/07 04:42:18;;;;;;;13.88;8.20;;;-19.10;90.30;;;;;;5034923;28;20030;-83
2024/01/07 04:44:44;;;;;;;14.95;6.60;;;-19.10;90.20;;;;;;5035644;28;20025;-84
2024/01/07 04:47:30;;;;;;;8.30;4.88;;;-19.10;90.30;;;;;;5023856;28;20559;-83
2024/01/07 04:49:56;;;;;;;14.07;6.18;;;-19.10;90.30;;;;;;5030912;28;20041;-82
2024/01/07 04:52:34;;;;;;;10.38;5.20;;;-19.10;90.20;;;;;;5048544;28;20371;-83
2024/01/07 04:55:00;;;;;;;13.55;6.18;;;-19.10;90.10;;;;;;5026342;28;20029;-84
2024/01/07 04:57:26;;;;;;;10.45;6.13;;;-19.20;90.10;;;;;;5039056;28;20494;-84
2024/01/07 04:59:52;;;;;;;16.53;7.07;;;-19.20;90.20;;;;;;5037852;28;20063;-81
2024/01/07 05:02:18;;;;;;;10.80;4.97;;;-19.20;90.10;;;;;;5019992;28;20422;-82
2024/01/07 05:04:44;;;;;;;6.70;4.03;;;-19.20;90.00;;;;;;5038904;28;20026;-82
2024/01/07 05:07:09;;;;;;;9.88;6.35;;;-19.20;89.70;;;;;;5036594;28;20057;-83
2024/01/07 05:09:35;;;;;;;11.73;5.72;;;-19.20;89.70;;;;;;5033944;28;20096;-83
2024/01/07 05:12:01;;;;;;;10.07;6.40;;;-19.30;89.80;;;;;;5039194;28;20045;-84
2024/01/07 05:14:27;;;;;;;11.23;4.68;;;-19.30;90.00;;;;;;5040475;28;20152;-85
2024/01/07 05:16:56;;;;;;;3.85;3.45;;;-19.30;90.00;;;;;;5034912;28;20032;-84
2024/01/07 05:19:22;;;;;;;15.77;6.82;;;-19.40;90.00;;;;;;5036300;28;20104;-85
2024/01/07 05:21:48;;;;;;;10.75;6.85;;;-19.40;90.00;;;;;;5033741;28;20025;-85
2024/01/07 05:24:13;;;;;;;7.70;4.70;;;-19.40;89.90;;;;;;5020523;28;20394;-84
2024/01/07 05:26:42;;;;;;;10.23;6.00;;;-19.40;89.70;;;;;;5045821;28;20022;-83
2024/01/07 05:29:07;;;;;;;10.55;5.22;;;-19.50;89.40;;;;;;5041513;28;20132;-82
2024/01/07 05:31:33;;;;;;;11.75;6.60;;;-19.50;89.60;;;;;;5044889;28;20029;-84
2024/01/07 05:33:59;;;;;;;10.10;5.17;;;-19.50;89.50;;;;;;5039349;28;20022;-85
2024/01/07 05:36:25;;;;;;;16.75;6.82;;;-19.60;89.20;;;;;;5033587;28;20257;-83
2024/01/07 05:38:50;;;;;;;8.33;5.77;;;-19.60;89.30;;;;;;5016859;28;20029;-85
2024/01/07 05:41:16;;;;;;;9.77;4.18;;;-19.70;89.40;;;;;;5039313;28;20269;-86
2024/01/07 05:43:42;;;;;;;15.02;5.60;;;-19.60;89.50;;;;;;5046871;28;20535;-83
2024/01/07 05:46:08;;;;;;;11.55;5.65;;;-19.70;89.50;;;;;;5042296;28;20479;-82
2024/01/07 05:48:44;;;;;;;8.32;4.20;;;-19.70;89.40;;;;;;5034515;28;20075;-84
2024/01/07 05:51:11;;;;;;;5.90;3.85;;;-19.70;89.50;;;;;;5015357;28;20100;-83
2024/01/07 05:53:37;;;;;;;8.52;2.83;;;-19.70;89.60;;;;;;5033428;28;20385;-83
2024/01/07 05:56:03;;;;;;;10.63;5.47;;;-19.70;89.60;;;;;;5033154;28;20029;-84
2024/01/07 05:58:29;;;;;;;12.00;5.93;;;-19.80;89.50;;;;;;5032930;28;20025;-84
2024/01/07 06:00:55;;;;;;;13.63;7.32;;;-19.80;89.70;;;;;;5024530;28;20048;-89
2024/01/07 06:03:21;;;;;;;14.18;6.20;;;-19.80;89.80;;;;;;5014911;28;20418;-84
2024/01/07 06:05:46;;;;;;;12.07;7.32;;;-19.90;89.50;;;;;;5033425;28;20063;-83
2024/01/07 06:08:13;;;;;;;8.52;6.55;;;-19.90;89.60;;;;;;5014740;28;20124;-84
2024/01/07 06:10:39;;;;;;;12.07;5.07;;;-19.90;89.50;;;;;;5032665;28;20021;-84
2024/01/07 06:13:05;;;;;;;11.50;7.80;;;-19.90;89.70;;;;;;5032965;28;20049;-85
2024/01/07 06:15:31;;;;;;;9.48;4.95;;;-19.90;89.80;;;;;;5015511;28;20541;-86
2024/01/07 06:17:57;;;;;;;12.23;6.35;;;-19.80;90.00;;;;;;5033011;28;20018;-84
2024/01/07 06:20:23;;;;;;;17.17;7.72;;;-19.80;90.00;;;;;;5020282;28;20392;-85
2024/01/07 06:22:50;;;;;;;19.85;9.88;;;-19.80;90.00;;;;;;5013547;28;20395;-84
2024/01/07 06:25:16;;;;;;;9.57;5.45;;;-19.70;90.10;;;;;;5034045;28;20036;-83
2024/01/07 06:27:41;;;;;;;11.20;6.15;;;-19.70;89.60;;;;;;5033829;28;20025;-82
2024/01/07 06:30:08;;;;;;;6.25;3.97;;;-19.70;89.50;;;;;;5043702;28;20037;-83
2024/01/07 06:32:34;;;;;;;7.07;5.18;;;-19.70;89.50;;;;;;5026822;28;20036;-83
2024/01/07 06:35:00;;;;;;;8.45;5.28;;;-19.70;89.50;;;;;;5016385;28;20034;-84
2024/01/07 06:37:28;;;;;;;9.20;5.25;;;-19.70;89.40;;;;;;5014070;28;20028;-83
2024/01/07 06:39:55;;;;;;;12.60;5.80;;;-19.60;89.70;;;;;;5027876;28;20026;-83
2024/01/07 06:42:20;;;;;;;17.00;9.43;;;-19.60;89.60;;;;;;5009845;28;20026;-83
2024/01/07 06:44:46;;;;;;;19.77;6.43;;;-19.60;89.70;;;;;;5032711;28;20029;-84
2024/01/07 06:47:12;;;;;;;12.60;6.33;;;-19.60;89.40;;;;;;5007462;28;20099;-84
2024/01/07 06:49:38;;;;;;;15.80;5.90;;;-19.60;89.10;;;;;;5040410;28;20289;-85
2024/01/07 06:52:05;;;;;;;7.90;5.40;;;-19.60;89.00;;;;;;5046156;28;20028;-85
2024/01/07 06:54:31;;;;;;;;;;;-19.60;88.80;;;;;;5043758;28;20119;-84
2024/01/07 06:56:56;;;;;;;13.60;6.63;;;-19.50;88.90;;;;;;5042273;28;19912;-82
2024/01/07 06:59:22;;;;;;;10.33;5.23;;;-19.60;88.60;;;;;;5040709;28;20088;-83
2024/01/07 07:01:48;;;;;;;4.60;4.20;;;-19.50;88.60;;;;;;5037573;28;20162;-83
2024/01/07 07:04:13;;;;;;;12.55;6.97;;;-19.60;88.60;;;;;;5034399;28;20032;-84
2024/01/07 07:06:39;;;;;;;9.70;4.97;;;-19.60;88.80;;;;;;5035981;28;20456;-83
2024/01/07 07:09:05;;;;;;;8.73;5.63;;;-19.60;88.90;;;;;;5037522;28;20037;-83
2024/01/07 07:11:31;;;;;;;11.73;5.97;;;-19.50;89.00;;;;;;5051624;28;20073;-82
2024/01/07 07:13:57;;;;;;;;;;;-19.50;89.20;;;;;;5036694;28;20029;-83
2024/01/07 07:16:23;;;;;;;3.38;3.03;;;-19.50;88.90;;;;;;5035795;28;20047;-84
2024/01/07 07:18:49;;;;;;;8.05;4.07;;;-19.50;88.30;;;;;;5036034;28;20025;-84
2024/01/07 07:21:14;;;;;;;11.37;5.73;;;-19.50;88.80;;;;;;5008790;28;20093;-84
2024/01/07 07:23:40;;;;;;;12.47;5.23;;;-19.50;89.20;;;;;;5033411;28;20269;-84
2024/01/07 07:26:08;;;;;;;10.73;5.27;;;-19.50;89.30;;;;;;5036241;28;20628;-83
2024/01/07 07:28:34;;;;;;;10.25;4.40;;;-19.50;89.50;;;;;;5037158;28;20833;-84
2024/01/07 07:30:59;;;;;;;3.13;2.78;;;-19.50;89.70;;;;;;5036813;28;20025;-85
2024/01/07 07:33:25;;;;;;;5.47;4.25;;;-19.40;89.90;;;;;;5037113;28;20075;-84
2024/01/07 07:35:51;;;;;;;10.35;6.13;;;-19.40;89.90;;;;;;5035674;28;20057;-84
2024/01/07 07:38:17;;;;;;;13.18;6.22;;;-19.40;90.00;;;;;;5015886;28;20029;-85
2024/01/07 07:40:42;;;;;;;17.60;8.68;;;-19.40;90.00;;;;;;5021464;28;20124;-84
2024/01/07 07:43:09;;;;;;;14.40;5.60;;;-19.30;89.80;;;;;;5035655;28;20052;-85
2024/01/07 07:45:34;;;;;;;5.57;4.63;;;-19.30;89.60;;;;;;5020214;28;20183;-84
2024/01/07 07:48:00;;;;;;;7.80;4.57;;;-19.30;89.20;;;;;;5038900;28;20455;-85
2024/01/07 07:50:26;;;;;;;9.50;4.43;;;-19.30;89.60;;;;;;5038052;28;20025;-84
2024/01/07 07:52:53;;;;;;;20.20;9.00;;;-19.30;89.90;;;;;;5036133;28;20044;-83
2024/01/07 07:55:19;;;;;;;;;;;-19.20;89.50;;;;;;5036228;28;20620;-83
2024/01/07 07:57:46;;;;;;;9.75;5.50;;;-19.10;89.70;;;;;;5035273;28;19909;-84
2024/01/07 08:00:12;;;;;;;7.53;5.00;;;-18.90;89.20;;;;;;5028455;28;20026;-84
2024/01/07 08:02:39;;;;;;;10.93;7.03;;;-18.90;88.80;;;;;;5036009;28;20033;-86
2024/01/07 08:05:06;;;;;;;11.38;7.07;;;-18.80;88.50;;;;;;5027290;28;20091;-86
2024/01/07 08:07:32;;;;;;;9.48;7.57;;;-18.80;88.50;;;;;;5033704;28;20032;-92
2024/01/07 08:09:58;;;;;;;12.23;5.73;;;-18.80;88.40;;;;;;5005712;28;20046;-88
2024/01/07 08:12:24;;;;;;;11.93;6.40;;;-18.70;88.50;;;;;;5010577;28;20288;-88
2024/01/07 08:14:51;;;;;;;11.80;6.10;;;-18.70;88.20;;;;;;5001424;28;20046;-88
2024/01/07 08:17:18;;;;;;;16.58;7.95;;;-18.70;87.80;;;;;;4988681;28;20095;-91
2024/01/07 08:19:44;;;;;;;11.48;6.70;;;-18.70;87.90;;;;;;4986678;28;20038;-91
2024/01/07 08:22:09;;;;;;;8.07;5.50;;;-18.50;89.00;;;;;;4997721;28;20031;-91
2024/01/07 08:24:35;;;;;;;9.10;5.80;;;-18.20;89.80;;;;;;5006438;28;20492;-87
2024/01/07 08:27:02;;;;;;;16.13;7.03;;;-17.90;90.10;;;;;;4995673;28;20031;-89
2024/01/07 08:29:28;;;;;;;7.03;4.30;;;-17.40;89.60;;;;;;4995566;28;20046;-88
2024/01/07 08:31:54;;;;;;;16.10;7.38;;;-17.00;90.30;;;;;;4979193;28;20113;-87
2024/01/07 08:34:20;;;;;;;7.73;5.97;;;-16.70;90.10;;;;;;4991702;28;20064;-88
2024/01/07 08:36:46;;;;;;;11.13;7.40;;;-16.40;88.50;;;;;;5003446;28;20033;-86
2024/01/07 08:39:15;;;;;;;8.80;5.77;;;-16.30;87.10;;;;;;5001879;28;20081;-87
2024/01/07 08:41:40;;;;;;;11.82;6.75;;;-16.20;87.30;;;;;;5026924;28;20037;-86
2024/01/07 08:44:08;;;;;;;8.27;6.50;;;-16.10;85.60;;;;;;5017838;28;20029;-84
2024/01/07 08:46:34;;;;;;;13.45;7.85;;;-16.20;84.70;;;;;;5016987;28;20021;-88
2024/01/07 08:49:01;;;;;;;15.55;6.28;;;-16.20;82.60;;;;;;5035591;28;20030;-87
2024/01/07 08:51:26;;;;;;;16.90;7.25;;;-16.20;82.20;;;;;;5036722;28;20017;-85
2024/01/07 08:53:52;;;;;;;19.37;9.17;;;-16.20;82.20;;;;;;5041290;28;20034;-85
2024/01/07 08:56:18;;;;;;;8.57;5.97;;;-16.10;82.00;;;;;;5047858;28;20053;-84
2024/01/07 08:58:44;;;;;;;11.53;6.73;;;-16.10;81.80;;;;;;5019170;28;20032;-86
2024/01/07 09:01:09;;;;;;;12.03;6.87;;;-16.20;81.20;;;;;;5037176;28;20017;-86
2024/01/07 09:03:35;;;;;;;14.20;8.60;;;-16.20;81.30;;;;;;5025814;28;20030;-83
2024/01/07 09:06:02;;;;;;;11.43;8.10;;;-16.10;81.60;;;;;;5026038;28;20036;-82
2024/01/07 09:08:28;;;;;;;10.13;5.90;;;-16.00;81.40;;;;;;5028272;28;20033;-82
2024/01/07 09:10:53;;;;;;;10.17;7.67;;;-16.10;80.10;;;;;;5025896;28;20027;-84
2024/01/07 09:13:19;;;;;;;10.97;7.00;;;-16.10;79.50;;;;;;5027998;28;20109;-84
2024/01/07 09:15:45;;;;;;;10.90;6.53;;;-16.20;79.70;;;;;;5024162;28;20022;-91
2024/01/07 09:18:11;;;;;;;21.47;9.10;;;-16.20;80.20;;;;;;5016796;28;20068;-83
2024/01/07 09:20:37;;;;;;;13.87;10.07;;;-16.10;81.40;;;;;;5034510;28;20028;-88
2024/01/07 09:23:03;;;;;;;7.47;5.30;;;-16.00;82.00;;;;;;5036473;28;20025;-88
2024/01/07 09:25:29;;;;;;;10.93;8.13;;;-15.70;81.30;;;;;;5019180;28;20034;-91
2024/01/07 09:27:55;;;;;;;10.57;6.57;;;-15.50;80.30;;;;;;5038515;28;20022;-90
2024/01/07 09:30:21;;;;;;;8.48;4.80;;;-15.30;80.30;;;;;;5009203;28;20088;-86
2024/01/07 09:32:46;;;;;;;12.65;7.70;;;-15.20;78.40;;;;;;5004234;28;20034;-88
2024/01/07 09:35:15;;;;;;;12.73;8.07;;;-15.20;78.30;;;;;;5014902;28;20506;-88
2024/01/07 09:37:41;;;;;;;14.88;8.75;;;-15.30;77.80;;;;;;5033064;28;20435;-83
2024/01/07 09:40:08;;;;;;;11.83;7.10;;;-15.40;76.50;;;;;;5022819;28;20037;-84
2024/01/07 09:42:34;;;;;;;15.68;7.32;;;-15.60;76.50;;;;;;5031235;28;20022;-81
2024/01/07 09:45:05;;;;;;;16.17;9.03;;;-15.90;76.80;;;;;;5015222;28;20036;-84
2024/01/07 09:47:31;;;;;;;20.20;10.25;;;-16.10;76.30;;;;;;5033144;28;20022;-85
2024/01/07 09:49:57;;;;;;;7.27;6.00;;;-16.40;76.70;;;;;;5044338;28;20061;-83
2024/01/07 09:52:25;;;;;;;12.57;5.83;;;-16.70;77.60;;;;;;5043837;28;20281;-84
2024/01/07 09:55:03;;;;;;;17.50;9.48;;;-16.90;79.10;;;;;;5038472;28;20100;-85
2024/01/07 09:57:30;;;;;;;9.40;5.88;;;-17.10;79.60;;;;;;5036276;28;20029;-83
2024/01/07 09:59:55;;;;;;;9.95;6.57;;;-17.30;80.60;;;;;;5035948;28;20041;-84
2024/01/07 10:02:24;;;;;;;19.30;8.50;;;-17.30;81.60;;;;;;5018406;28;20502;-84
2024/01/07 10:04:50;;;;;;;14.57;7.85;;;-17.40;81.90;;;;;;5043710;28;20021;-83
2024/01/07 10:07:17;;;;;;;14.50;5.00;;;-17.50;82.10;;;;;;5042925;28;20033;-87
2024/01/07 10:09:43;;;;;;;20.48;12.05;;;-17.50;82.50;;;;;;5033520;28;20045;-87
2024/01/07 10:12:12;;;;;;;11.27;6.70;;;-17.50;82.70;;;;;;5050317;28;20048;-86
2024/01/07 10:14:40;;;;;;;17.25;9.77;;;-17.40;83.40;;;;;;5039897;28;20044;-87
2024/01/07 10:17:18;;;;;;;20.17;8.60;;;-17.00;84.00;;;;;;5037630;28;20029;-87
2024/01/07 10:19:48;;;;;;;12.60;8.75;;;-16.50;84.50;;;;;;5041107;28;20471;-85
2024/01/07 10:22:16;;;;;;;24.75;11.38;;;-16.10;83.40;;;;;;5017111;28;20487;-86
2024/01/07 10:24:43;;;;;;;13.20;8.60;;;-15.60;83.40;;;;;;5015044;28;20442;-79
2024/01/07 10:27:13;;;;;;;18.15;7.90;;;-15.20;82.60;;;;;;5028455;28;20394;-80
2024/01/07 10:29:39;;;;;;;10.07;8.40;;;-14.70;81.90;;;;;;5029672;28;20033;-80
2024/01/07 10:32:05;;;;;;;22.53;12.57;;;-14.30;81.50;;;;;;5022411;28;20093;-81
2024/01/07 10:34:33;;;;;;;14.40;10.20;;;-14.00;81.00;;;;;;5032949;28;20085;-78
2024/01/07 10:37:00;;;;;;;14.07;7.20;;;-14.00;80.10;;;;;;5035661;28;20107;-79
2024/01/07 10:39:25;;;;;;;;;;;-14.20;76.30;;;;;;5036156;28;20026;-77
2024/01/07 10:41:57;;;;;;;21.57;11.93;;;-14.70;76.80;;;;;;5029630;28;19974;-79
2024/01/07 10:44:26;;;;;;;23.75;11.88;;;-15.00;76.60;;;;;;5022380;28;20022;-80
2024/01/07 10:46:55;;;;;;;10.80;7.03;;;-15.40;76.90;;;;;;5029466;28;20049;-79
2024/01/07 10:49:25;;;;;;;35.95;10.18;;;-15.70;77.20;;;;;;5006661;28;20030;-81
2024/01/07 10:52:11;;;;;;;18.83;9.00;;;-16.00;78.30;;;;;;5021284;28;20022;-81
2024/01/07 10:54:37;;;;;;;12.65;6.78;;;-16.30;79.30;;;;;;5024860;28;20075;-83
2024/01/07 10:57:26;;;;;;;18.25;7.78;;;-16.50;79.90;;;;;;5018999;28;20120;-81
2024/01/07 10:59:54;;;;;;;17.23;10.15;;;-16.70;80.20;;;;;;5032515;28;20017;-83
2024/01/07 11:02:22;;;;;;;19.98;10.07;;;-16.80;80.80;;;;;;5011111;28;20091;-81
2024/01/07 11:05:29;;;;;;;10.63;5.97;;;-16.80;81.90;;;;;;5029738;28;20055;-84
2024/01/07 11:08:22;;;;;;;21.63;10.18;;;-17.00;81.40;;;;;;5010178;28;20440;-81
2024/01/07 11:10:58;;;;;;;13.38;9.63;;;-17.10;82.20;;;;;;5008263;28;20033;-84
2024/01/07 11:13:37;;;;;;;12.02;5.68;;;-17.20;82.30;;;;;;5022382;28;20041;-82
2024/01/07 11:16:12;;;;;;;15.32;5.72;;;-17.30;83.40;;;;;;5025664;28;20064;-83
2024/01/07 11:18:53;;;;;;;17.30;8.63;;;-17.30;84.20;;;;;;5014639;28;20376;-83
2024/01/07 11:21:24;;;;;;;9.52;6.30;;;-17.30;84.50;;;;;;5033170;28;20026;-79
2024/01/07 11:23:52;;;;;;;10.60;5.45;;;-17.40;84.70;;;;;;5015755;28;20079;-82
2024/01/07 11:26:20;;;;;;;12.55;5.95;;;-17.40;85.10;;;;;;5024366;28;20025;-81
2024/01/07 11:28:51;;;;;;;15.73;9.25;;;-17.40;85.20;;;;;;5029699;28;20033;-81
2024/01/07 11:31:18;;;;;;;21.25;10.75;;;-17.40;85.40;;;;;;5039547;28;20018;-81
2024/01/07 11:33:49;;;;;;;16.45;6.70;;;-17.40;86.00;;;;;;5041297;28;20026;-81
2024/01/07 11:36:16;;;;;;;9.68;5.28;;;-17.40;86.50;;;;;;4992266;28;20029;-81
2024/01/07 11:38:48;;;;;;;13.75;6.70;;;-17.50;86.50;;;;;;4999381;28;20029;-78
2024/01/07 11:41:15;;;;;;;10.73;5.32;;;-17.40;86.70;;;;;;5031556;28;20099;-79
2024/01/07 11:44:02;;;;;;;8.40;6.40;;;-17.40;87.30;;;;;;5023959;28;20048;-80
2024/01/07 11:46:29;;;;;;;7.70;5.28;;;-17.40;87.60;;;;;;5016735;28;20021;-81
2024/01/07 11:48:58;;;;;;;10.30;6.05;;;-17.40;87.70;;;;;;5034986;28;20044;-79
2024/01/07 11:51:31;;;;;;;12.65;7.63;;;-17.50;87.80;;;;;;5040316;28;20131;-81
2024/01/07 11:54:00;;;;;;;9.45;5.13;;;-17.50;87.70;;;;;;5011994;28;20030;-80
2024/01/07 11:56:27;;;;;;;13.27;7.72;;;-17.50;87.40;;;;;;5016968;28;20014;-80
2024/01/07 11:58:53;;;;;;;10.18;6.18;;;-17.50;87.60;;;;;;5028381;28;20030;-79
2024/01/07 12:01:19;;;;;;;13.63;9.10;;;-17.50;87.80;;;;;;5033162;28;20101;-80
2024/01/07 12:03:45;;;;;;;5.90;3.13;;;-17.60;87.90;;;;;;5036366;28;20045;-80
2024/01/07 12:06:13;;;;;;;11.65;7.80;;;-17.60;88.00;;;;;;5035032;28;20029;-81
2024/01/07 12:08:43;;;;;;;12.65;5.43;;;-17.60;88.40;;;;;;5031005;28;20448;-82
2024/01/07 12:11:11;;;;;;;12.85;8.35;;;-17.60;88.60;;;;;;5035163;28;20056;-82
2024/01/07 12:13:37;;;;;;;15.07;7.00;;;-17.60;88.60;;;;;;5027246;28;20076;-82
2024/01/07 12:16:07;;;;;;;14.00;5.15;;;-17.60;88.90;;;;;;5034560;28;20025;-82
2024/01/07 12:18:36;;;;;;;11.45;6.45;;;-17.60;89.10;;;;;;5033612;28;20030;-79
2024/01/07 12:21:01;;;;;;;10.07;5.68;;;-17.60;89.50;;;;;;5017853;28;20029;-81
2024/01/07 12:23:28;;;;;;;21.20;8.63;;;-17.60;89.80;;;;;;5035557;28;20018;-81
2024/01/07 12:25:57;;;;;;;16.02;6.82;;;-17.50;90.10;;;;;;5033375;28;20281;-81
2024/01/07 12:28:24;;;;;;;8.70;6.47;;;-17.50;90.10;;;;;;5034614;28;20041;-81
2024/01/07 12:30:50;;;;;;;11.80;6.25;;;-17.50;90.10;;;;;;5036104;28;20021;-79